Latest Weather Observations for Pallamana

IDS60801

Issued at 9:01 pm CST Friday 20 May 2022 (issued every 10 minutes, with the page automatically refreshed every 10 minutes)

About weather observations | Map of weather stations | Latest weather observations for SA | Other Formats
Station Details ID: 024584 Name: PALLAMANA AERODROME Lat: -35.06 Lon: 139.23 Height: 45.0 m
Data from the previous 72 hours. | See also: Recent months at Pallamana
Date/Time
CST
Temp
°C
App
Temp
°C
Dew
Point
°C
Rel
Hum
%
Delta-T
°C
Wind Press
QNH
hPa
Press
MSL
hPa
Rain since
9am
mm
Dir  Spd
km/h
Gust
km/h
Spd
kts
Gust
kts
20/09:00pm 7.4 4.7 5.7 89 0.8 S 9 11 5 6 1031.8 1031.9 0.0
20/08:30pm 7.9 5.7 6.0 88 0.9 S 7 11 4 6 1031.6 1031.7 0.0
20/08:00pm 8.4 5.8 6.2 86 1.0 S 9 9 5 5 1031.5 1031.6 0.0
20/07:30pm 9.4 7.2 6.3 81 1.4 S 7 9 4 5 1031.3 1031.4 0.0
20/07:00pm 11.0 9.1 6.9 76 1.9 SSE 6 7 3 4 1031.1 1031.2 0.0
20/06:30pm 11.2 9.8 7.1 76 1.9 SSE 4 6 2 3 1030.9 1030.9 0.0
20/06:00pm 11.4 8.9 6.7 73 2.2 SSE 9 9 5 5 1030.6 1030.6 0.0
20/05:30pm 13.9 11.1 7.0 63 3.3 SSE 11 13 6 7 1030.3 1030.3 0.0
20/05:00pm 15.4 11.8 6.9 57 4.2 SE 15 19 8 10 1030.1 1030.1 0.0
20/04:30pm 16.2 12.2 6.6 53 4.7 SE 17 22 9 12 1030.0 1030.0 0.0
20/04:00pm 16.4 12.1 6.8 53 4.7 SE 19 22 10 12 1029.9 1029.9 0.0
20/03:30pm 16.2 11.7 6.3 52 4.8 SE 19 22 10 12 1029.9 1029.9 0.0
20/03:00pm 16.2 11.5 6.1 51 4.9 E 20 24 11 13 1029.9 1029.9 0.0
20/02:30pm 16.2 11.7 6.1 51 4.9 ESE 19 26 10 14 1029.9 1029.9 0.0
20/02:00pm 16.5 12.0 6.3 51 5.0 ESE 19 30 10 16 1030.2 1030.2 0.0
20/01:30pm 16.0 11.9 6.2 52 4.7 E 17 24 9 13 1030.6 1030.6 0.0
20/01:00pm 15.6 10.4 5.5 51 4.8 E 22 30 12 16 1030.9 1030.9 0.0
20/12:30pm 15.7 11.3 6.4 54 4.5 ENE 19 28 10 15 1031.3 1031.4 0.0
20/12:00pm 16.2 11.7 6.9 54 4.6 E 20 26 11 14 1031.7 1031.8 0.0
20/11:30am 15.0 10.4 6.6 57 4.1 E 20 30 11 16 1032.3 1032.4 0.0
20/11:00am 14.7 10.2 6.8 59 3.9 E 20 30 11 16 1032.7 1032.8 0.0
20/10:30am 14.1 9.5 6.7 61 3.6 E 20 28 11 15 1032.9 1033.0 0.0
20/10:00am 12.4 9.5 6.7 68 2.7 E 11 17 6 9 1033.2 1033.3 0.0
20/09:30am 10.5 8.1 6.8 78 1.7 ESE 9 13 5 7 1033.4 1033.5 0.0
20/09:00am 9.1 6.5 6.2 82 1.3 ESE 9 11 5 6 1033.4 1033.5 0.0
20/08:30am 8.1 5.9 6.1 87 0.9 E 7 9 4 5 1033.4 1033.5 0.0
20/08:00am 6.8 4.7 5.6 92 0.5 SE 6 11 3 6 1033.3 1033.4 0.0
20/07:30am 5.8 4.3 4.8 93 0.4 SE 2 7 1 4 1033.2 1033.3 0.0
20/07:00am 5.7 3.4 4.8 94 0.4 S 6 7 3 4 1032.9 1033.0 0.0
20/06:30am 5.3 4.1 4.6 95 0.3 CALM 0 0 0 0 1032.6 1032.7 0.0
20/06:00am 4.8 3.5 3.9 94 0.4 CALM 0 0 0 0 1032.4 1032.5 0.0
20/05:30am 6.0 4.6 5.3 95 0.3 NNE 2 6 1 3 1032.3 1032.4 0.0
20/05:00am 5.3 3.8 5.0 98 0.1 WNW 2 7 1 4 1032.1 1032.2 0.0
20/04:30am 4.3 1.8 3.6 95 0.3 S 6 7 3 4 1031.9 1032.0 0.0
20/04:00am 2.8 -0.1 2.5 98 0.1 S 7 7 4 4 1032.0 1032.1 0.0
20/03:30am 3.3 1.8 2.9 97 0.2 CALM 0 0 0 0 1032.0 1032.1 0.0
20/03:00am 1.8 0.0 1.4 97 0.2 CALM 0 0 0 0 1031.9 1032.0 0.0
20/02:30am 2.0 -0.1 1.4 96 0.2 S 2 7 1 4 1031.9 1032.0 0.0
20/02:00am 3.6 2.1 3.0 96 0.2 CALM 0 0 0 0 1031.9 1032.0 0.0
20/01:30am 4.1 1.3 3.4 95 0.3 SW 7 11 4 6 1031.8 1031.9 0.0
20/01:00am 3.4 0.4 2.2 92 0.5 SSW 7 9 4 5 1031.9 1032.0 0.0
20/12:30am 5.6 3.3 4.6 93 0.4 SSW 6 7 3 4 1032.0 1032.1 0.0
20/12:00am 5.6 3.1 3.6 87 0.8 S 6 7 3 4 1032.1 1032.2 0.0
 
Date/Time
CST
Temp
°C
App
Temp
°C
Dew
Point
°C
Rel
Hum
%
Delta-T
°C
Wind Press
QNH
hPa
Press
MSL
hPa
Rain since
9am
mm
Dir  Spd
km/h
Gust
km/h
Spd
kts
Gust
kts
19/11:30pm 7.1 4.8 4.9 86 1.0 SSW 6 9 3 5 1032.1 1032.2 0.0
19/11:00pm 7.5 5.3 5.3 86 1.0 S 6 7 3 4 1032.2 1032.3 0.0
19/10:30pm 8.1 5.8 5.6 84 1.1 S 7 7 4 4 1032.2 1032.3 0.0
19/10:00pm 8.8 7.6 6.3 84 1.2 SSE 2 7 1 4 1032.2 1032.3 0.0
19/09:30pm 9.0 8.2 6.3 83 1.2 CALM 0 0 0 0 1032.2 1032.3 0.0
19/09:00pm 9.5 7.5 6.2 80 1.5 SSE 6 7 3 4 1032.2 1032.3 0.0
19/08:30pm 10.4 7.5 6.5 77 1.8 SSE 11 13 6 7 1032.0 1032.1 0.0
19/08:00pm 10.9 8.4 6.6 75 2.0 SSE 9 11 5 6 1031.8 1031.9 0.0
19/07:30pm 10.5 8.1 6.8 78 1.7 S 9 13 5 7 1031.5 1031.6 0.0
19/07:00pm 10.2 7.7 6.4 77 1.8 S 9 11 5 6 1031.4 1031.5 0.0
19/06:30pm 10.5 8.0 6.5 76 1.9 S 9 11 5 6 1031.1 1031.2 0.0
19/06:00pm 11.1 8.5 6.3 72 2.2 SSE 9 9 5 5 1030.8 1030.8 0.0
19/05:30pm 12.4 9.8 6.0 65 3.0 SSE 9 11 5 6 1030.6 1030.6 0.0
19/05:00pm 13.9 10.4 5.5 57 4.0 SE 13 17 7 9 1030.2 1030.2 0.0
19/04:30pm 15.9 11.7 5.5 50 4.9 SE 17 24 9 13 1029.9 1029.9 0.0
19/04:00pm 16.6 12.3 5.3 47 5.4 SE 17 26 9 14 1029.8 1029.8 0.0
19/03:30pm 15.8 13.2 6.0 52 4.7 ESE 9 13 5 7 1029.8 1029.8 0.0
19/03:00pm 16.4 13.0 6.0 50 5.0 E 13 17 7 9 1029.8 1029.8 0.0
19/02:30pm 17.1 14.6 6.6 50 5.1 ENE 9 17 5 9 1029.6 1029.6 0.0
19/02:00pm 16.3 13.6 7.5 56 4.4 ENE 11 15 6 8 1029.7 1029.7 0.0
19/01:30pm 15.6 13.0 7.6 59 4.0 ENE 11 15 6 8 1030.0 1030.0 0.0
19/01:00pm 15.4 12.0 7.7 60 3.8 E 15 20 8 11 1030.1 1030.1 0.0
19/12:30pm 14.8 13.3 9.0 68 2.9 E 7 9 4 5 1030.4 1030.4 0.0
19/12:00pm 14.6 12.4 9.2 70 2.7 E 11 17 6 9 1031.0 1031.1 0.0
19/11:30am 15.5 13.5 10.1 70 2.8 E 11 17 6 9 1031.3 1031.4 0.0
19/11:00am 14.4 11.8 9.4 72 2.6 ESE 13 19 7 10 1031.5 1031.6 0.0
19/10:30am 13.6 11.5 9.6 77 2.0 E 11 15 6 8 1031.6 1031.7 0.0
19/10:00am 13.4 12.3 10.8 84 1.4 ESE 7 11 4 6 1031.6 1031.7 0.0
19/09:30am 12.6 11.8 11.0 90 0.8 NE 6 7 3 4 1031.5 1031.6 0.0
19/09:00am 11.4 11.0 11.1 98 0.2 NW 4 7 2 4 1031.4 1031.5 0.0
19/08:30am 9.6 9.2 9.6 100 0.0 NW 2 7 1 4 1031.5 1031.6 0.0
19/08:00am 7.5 6.9 7.5 100 0.0 CALM 0 0 0 0 1031.1 1031.2 0.0
19/07:30am 4.5 2.1 4.5 100 0.0 NW 6 7 3 4 1030.8 1030.8 0.0
19/07:00am 5.0 2.5 5.0 100 0.0 WSW 7 7 4 4 1030.4 1030.4 0.0
19/06:30am 5.0 2.7 5.0 100 0.0 NE 6 9 3 5 1030.1 1030.1 0.0
19/06:00am 4.9 3.4 4.9 100 0.0 WNW 2 7 1 4 1029.4 1029.4 0.0
19/05:30am 6.2 5.3 6.2 100 0.0 CALM 0 0 0 0 1029.2 1029.2 0.0
19/05:00am 5.4 4.3 5.1 98 0.1 CALM 0 6 0 3 1028.9 1028.9 0.0
19/04:30am 7.4 6.0 7.4 100 0.0 W 4 6 2 3 1028.6 1028.6 0.0
19/04:00am 7.3 5.3 7.3 100 0.0 WNW 7 11 4 6 1028.6 1028.6 0.0
19/03:30am 6.1 5.1 5.8 98 0.1 CALM 0 0 0 0 1028.8 1028.8 0.0
19/03:00am 4.9 2.6 4.6 98 0.1 W 6 13 3 7 1028.9 1028.9 0.0
19/02:30am 5.5 3.3 5.2 98 0.1 WSW 6 15 3 8 1029.0 1029.0 0.0
19/02:00am 4.2 2.8 3.8 97 0.2 CALM 0 0 0 0 1028.8 1028.8 0.0
19/01:30am 6.0 3.9 5.9 99 0.0 WSW 6 7 3 4 1028.7 1028.7 0.0
19/01:00am 6.0 5.0 5.6 97 0.2 CALM 0 0 0 0 1028.4 1028.4 0.0
19/12:30am 5.6 4.4 4.7 94 0.4 CALM 0 0 0 0 1028.5 1028.5 0.0
19/12:00am 6.8 5.8 5.6 92 0.5 CALM 0 0 0 0 1028.5 1028.5 0.0
 
Date/Time
CST
Temp
°C
App
Temp
°C
Dew
Point
°C
Rel
Hum
%
Delta-T
°C
Wind Press
QNH
hPa
Press
MSL
hPa
Rain since
9am
mm
Dir  Spd
km/h
Gust
km/h
Spd
kts
Gust
kts
18/11:30pm 8.7 7.6 6.7 87 0.9 W 2 9 1 5 1028.5 1028.5 0.0
18/11:00pm 11.0 8.1 8.2 83 1.4 W 13 15 7 8 1028.4 1028.4 0.0
18/10:30pm 10.1 7.6 8.0 87 1.0 W 11 15 6 8 1028.4 1028.4 0.0
18/10:00pm 10.1 7.1 7.7 85 1.2 W 13 15 7 8 1028.3 1028.3 0.0
18/09:30pm 10.8 7.5 8.2 84 1.3 W 15 17 8 9 1028.1 1028.1 0.0
18/09:00pm 10.4 7.9 8.0 85 1.2 W 11 13 6 7 1027.9 1027.9 0.0
18/08:30pm 10.8 7.6 8.4 85 1.2 WSW 15 17 8 9 1027.9 1027.9 0.0
18/08:00pm 11.0 8.5 8.4 84 1.3 SW 11 13 6 7 1027.8 1027.8 0.0
18/07:30pm 11.6 9.2 8.6 82 1.5 WSW 11 15 6 8 1027.6 1027.6 0.0
18/07:00pm 10.2 6.9 8.0 86 1.1 SW 15 17 8 9 1027.6 1027.6 0.0
18/06:30pm 9.9 6.4 7.3 84 1.2 SW 15 15 8 8 1027.4 1027.4 0.0
18/06:00pm 10.3 7.5 6.8 79 1.6 SSW 11 13 6 7 1027.1 1027.1 0.0
18/05:30pm 12.0 9.1 6.5 69 2.6 SSW 11 13 6 7 1026.6 1026.6 0.0
18/05:00pm 14.1 10.4 6.5 60 3.7 SSW 15 20 8 11 1026.3 1026.3 0.0
18/04:30pm 15.3 10.5 5.8 53 4.5 SSW 20 26 11 14 1026.0 1026.0 0.0
18/04:00pm 16.2 10.1 4.9 47 5.4 SSW 26 32 14 17 1025.7 1025.7 0.0
18/03:30pm 16.9 10.7 4.3 43 5.9 SSW 26 33 14 18 1025.5 1025.5 0.0
18/03:00pm 17.5 11.8 5.1 44 5.9 SW 24 32 13 17 1025.4 1025.4 0.0
18/02:30pm 17.6 13.3 7.1 50 5.2 SSW 19 28 10 15 1025.2 1025.2 0.0
18/02:00pm 18.0 13.0 6.5 47 5.7 SW 22 32 12 17 1025.1 1025.1 0.0
18/01:30pm 17.5 12.4 7.5 52 5.0 WSW 24 32 13 17 1025.1 1025.1 0.0
18/01:00pm 16.9 11.6 6.7 51 5.0 SSW 24 35 13 19 1025.2 1025.2 0.0
18/12:30pm 17.7 12.3 6.3 47 5.6 SW 24 33 13 18 1025.6 1025.6 0.0
18/12:00pm 17.1 11.9 3.8 41 6.2 SW 20 32 11 17 1025.7 1025.7 0.0
18/11:30am 17.0 11.2 6.2 49 5.3 SW 26 37 14 20 1026.0 1026.0 0.0
18/11:00am 15.8 10.6 7.3 57 4.2 SSW 24 37 13 20 1026.1 1026.1 0.0
18/10:30am 15.9 11.7 9.8 67 3.2 SSW 22 30 12 16 1026.0 1026.0 0.0
18/10:00am 15.8 11.6 9.9 68 3.1 SW 22 30 12 16 1026.1 1026.1 0.0
18/09:30am 15.3 12.4 10.9 75 2.3 WSW 17 22 9 12 1026.1 1026.1 0.0
18/09:00am 14.2 11.7 11.0 81 1.7 WSW 15 20 8 11 1025.9 1025.9 0.2
18/08:30am 12.9 10.6 10.6 86 1.2 WSW 13 15 7 8 1025.6 1025.6 0.2
18/08:00am 11.8 9.4 10.2 90 0.8 W 13 17 7 9 1025.2 1025.2 0.2
18/07:30am 10.8 7.9 9.7 93 0.6 W 15 17 8 9 1025.0 1025.0 0.2
18/07:00am 10.9 8.1 10.0 94 0.5 W 15 17 8 9 1024.7 1024.7 0.2
18/06:30am 10.7 8.6 9.9 95 0.4 WNW 11 13 6 7 1024.5 1024.5 0.2
18/06:00am 10.2 7.9 9.1 93 0.5 WNW 11 13 6 7 1024.1 1024.1 0.2
18/05:30am 10.7 8.2 9.8 94 0.5 W 13 17 7 9 1023.8 1023.8 0.2
18/05:00am 10.6 7.7 9.7 94 0.5 WNW 15 17 8 9 1023.6 1023.6 0.2
18/04:30am 11.0 8.6 9.9 93 0.6 WNW 13 15 7 8 1023.5 1023.5 0.2
18/04:00am 10.9 8.9 10.0 94 0.5 WNW 11 13 6 7 1023.2 1023.2 0.2
18/03:30am 10.7 7.8 9.8 94 0.5 WNW 15 17 8 9 1022.8 1022.8 0.2
18/03:00am 10.8 8.7 9.9 94 0.5 WNW 11 13 6 7 1022.6 1022.6 0.2
18/02:30am 10.7 8.3 9.9 95 0.4 WNW 13 15 7 8 1022.6 1022.6 0.2
18/02:00am 10.4 8.3 9.9 97 0.3 WNW 11 15 6 8 1022.4 1022.4 0.2
18/01:30am 10.6 9.1 10.4 99 0.1 WNW 9 11 5 6 1022.6 1022.6 0.2
18/01:00am 8.3 7.5 8.3 100 0.0 NW 2 9 1 5 1022.5 1022.5 0.2
18/12:30am 9.2 7.7 9.1 99 0.0 NNW 7 9 4 5 1022.6 1022.6 0.2
18/12:00am 10.3 9.0 9.8 97 0.3 NW 7 11 4 6 1022.6 1022.6 0.2
 
Date/Time
CST
Temp
°C
App
Temp
°C
Dew
Point
°C
Rel
Hum
%
Delta-T
°C
Wind Press
QNH
hPa
Press
MSL
hPa
Rain since
9am
mm
Dir  Spd
km/h
Gust
km/h
Spd
kts
Gust
kts
17/11:30pm 12.0 10.8 11.5 97 0.3 NW 9 13 5 7 1022.5 1022.5 0.2
17/11:00pm 12.2 10.7 11.9 98 0.2 WNW 11 17 6 9 1022.8 1022.8 0.2
17/10:30pm 11.6 10.7 11.3 98 0.2 S 7 11 4 6 1023.1 1023.1 0.0
17/10:00pm 11.8 10.4 11.0 95 0.4 NW 9 11 5 6 1022.8 1022.8 0.0
17/09:30pm 12.4 10.8 11.5 94 0.5 WNW 11 13 6 7 1022.8 1022.8 0.0

Other formats

Comma delimited format used in spreadsheet applications
http://www.bom.gov.au/fwo/IDS60801/IDS60801.95818.axf

JavaScript Object Notation format (JSON) in row-major order
http://www.bom.gov.au/fwo/IDS60801/IDS60801.95818.json

Data quality

Most of these data are generated automatically and are frequently updated. Quality checks on data are not normally performed. It is possible for incorrect values to appear. Refer to information at About Latest Weather Observations and please check the disclaimer before using these data.